Time,TemperatureF,DewpointF,PressureIn,WindDirection,WindDirectionDegrees,WindSpeedMPH,WindSpeedGustMPH,Humidity,HourlyPrecipIn,Conditions,Clouds,dailyrainin,SoftwareType,DateUTC
2013-06-03 00:03:00,61.0,60.0,29.97,SSE,166,0.0,1.0,95,0.00,,,1.80,,2013-06-03 04:03:00,
2013-06-03 00:13:00,61.0,60.0,29.97,SSE,166,0.0,1.0,95,0.00,,,1.80,,2013-06-03 04:13:00,
2013-06-03 00:23:00,61.0,60.0,29.97,SSE,166,0.0,1.0,95,0.00,,,1.80,,2013-06-03 04:23:00,
2013-06-03 00:33:00,61.0,60.0,29.97,SSE,166,0.0,0.0,95,0.00,,,1.80,,2013-06-03 04:33:00,
2013-06-03 00:42:00,61.0,60.0,29.97,SSE,166,0.0,0.0,95,0.00,,,1.80,,2013-06-03 04:42:00,
2013-06-03 00:53:00,61.0,60.0,29.97,SSE,166,0.0,1.0,96,0.00,,,1.80,,2013-06-03 04:53:00,
2013-06-03 01:02:00,61.0,60.0,29.97,SSE,166,0.0,1.0,96,0.00,,,1.80,,2013-06-03 05:02:00,
2013-06-03 01:12:00,61.0,60.0,29.97,SSE,166,0.0,1.0,96,0.00,,,1.80,,2013-06-03 05:12:00,
2013-06-03 01:22:00,61.0,60.0,29.97,SSE,167,0.0,1.0,96,0.00,,,1.77,,2013-06-03 05:22:00,
2013-06-03 01:32:00,61.0,60.0,29.97,SSE,166,0.0,2.0,96,0.00,,,1.77,,2013-06-03 05:32:00,
2013-06-03 01:43:00,61.0,60.0,29.97,SSE,166,0.0,2.0,96,0.00,,,1.77,,2013-06-03 05:43:00,
2013-06-03 01:52:00,61.0,60.0,29.97,SSE,166,0.0,0.0,96,0.00,,,1.77,,2013-06-03 05:52:00,
2013-06-03 02:02:00,61.0,60.0,29.97,SSE,166,0.0,1.0,96,0.00,,,1.77,,2013-06-03 06:02:00,
2013-06-03 02:12:00,61.0,60.0,29.97,SSE,166,0.0,1.0,96,0.00,,,1.77,,2013-06-03 06:12:00,
2013-06-03 02:22:00,61.0,60.0,29.97,SSE,167,0.0,2.0,96,0.00,,,1.74,,2013-06-03 06:22:00,
2013-06-03 02:32:00,61.0,60.0,29.96,SSE,166,1.0,3.0,97,0.00,,,1.74,,2013-06-03 06:32:00,
2013-06-03 02:42:00,61.0,60.0,29.96,SSE,166,1.0,3.0,97,0.00,,,1.74,,2013-06-03 06:42:00,
2013-06-03 02:53:00,62.0,61.0,29.96,SSE,166,0.0,2.0,97,0.00,,,1.74,,2013-06-03 06:53:00,
2013-06-03 03:02:00,61.0,60.0,29.96,SSE,166,0.0,3.0,97,0.00,,,1.74,,2013-06-03 07:02:00,
2013-06-03 03:12:00,61.0,60.0,29.96,SSE,166,0.0,3.0,97,0.00,,,1.74,,2013-06-03 07:12:00,
2013-06-03 03:22:00,61.0,60.0,29.96,SSE,166,0.0,3.0,97,0.00,,,1.74,,2013-06-03 07:22:00,
2013-06-03 03:32:00,61.0,60.0,29.95,SSE,167,0.0,3.0,96,0.00,,,1.74,,2013-06-03 07:32:00,
2013-06-03 03:42:00,61.0,60.0,29.95,SSE,167,0.0,3.0,96,0.00,,,1.74,,2013-06-03 07:42:00,
2013-06-03 03:52:00,61.0,60.0,29.95,SSE,166,1.0,5.0,96,0.00,,,1.74,,2013-06-03 07:52:00,
2013-06-03 04:02:00,61.0,60.0,29.94,SSE,167,1.0,6.0,96,0.00,,,1.74,,2013-06-03 08:02:00,
2013-06-03 04:12:00,61.0,60.0,29.94,SSE,167,1.0,6.0,96,0.00,,,1.74,,2013-06-03 08:12:00,
2013-06-03 04:22:00,60.0,59.0,29.93,SSE,167,1.0,7.0,96,0.00,,,1.74,,2013-06-03 08:22:00,
2013-06-03 04:32:00,60.0,59.0,29.92,SSE,167,2.0,5.0,96,0.00,,,1.74,,2013-06-03 08:32:00,
2013-06-03 04:42:00,60.0,59.0,29.92,SSE,167,2.0,5.0,96,0.00,,,1.74,,2013-06-03 08:42:00,
2013-06-03 04:52:00,60.0,59.0,29.93,SSE,167,1.0,4.0,97,0.00,,,1.74,,2013-06-03 08:52:00,
2013-06-03 05:02:00,60.0,59.0,29.93,SSE,167,1.0,7.0,97,0.00,,,1.74,,2013-06-03 09:02:00,
2013-06-03 05:12:00,60.0,59.0,29.93,SSE,167,1.0,7.0,97,0.00,,,1.74,,2013-06-03 09:12:00,
2013-06-03 05:22:00,60.0,59.0,29.93,SSE,167,1.0,4.0,97,0.00,,,1.74,,2013-06-03 09:22:00,
2013-06-03 05:33:00,60.0,59.0,29.93,SSE,167,1.0,4.0,97,0.00,,,1.74,,2013-06-03 09:33:00,
2013-06-03 05:42:00,60.0,59.0,29.93,SSE,167,1.0,4.0,97,0.00,,,1.74,,2013-06-03 09:42:00,
2013-06-03 05:53:00,60.0,59.0,29.94,South,169,0.0,5.0,97,0.00,,,1.74,,2013-06-03 09:53:00,
2013-06-03 06:03:00,60.0,59.0,29.94,South,169,1.0,4.0,97,0.00,,,1.74,,2013-06-03 10:03:00,
2013-06-03 06:12:00,60.0,59.0,29.94,South,169,1.0,4.0,97,0.00,,,1.74,,2013-06-03 10:12:00,
2013-06-03 06:22:00,60.0,59.0,29.94,SSE,167,1.0,6.0,97,0.00,,,1.74,,2013-06-03 10:22:00,
2013-06-03 06:33:00,60.0,59.0,29.94,SSE,167,1.0,6.0,97,0.00,,,1.74,,2013-06-03 10:33:00,
2013-06-03 06:42:00,60.0,59.0,29.94,SSE,167,1.0,6.0,97,0.00,,,1.74,,2013-06-03 10:42:00,
2013-06-03 06:53:00,60.0,59.0,29.94,SSE,167,1.0,7.0,97,0.02,,,1.76,,2013-06-03 10:53:00,
2013-06-03 07:02:00,60.0,59.0,29.94,South,169,1.0,6.0,97,0.02,,,1.76,,2013-06-03 11:02:00,
2013-06-03 07:12:00,60.0,59.0,29.94,South,169,1.0,6.0,97,0.02,,,1.76,,2013-06-03 11:12:00,
2013-06-03 07:22:00,60.0,59.0,29.95,SSE,167,2.0,7.0,97,0.02,,,1.72,,2013-06-03 11:22:00,
2013-06-03 07:32:00,60.0,59.0,29.95,SSE,167,0.0,6.0,97,0.02,,,1.72,,2013-06-03 11:32:00,
2013-06-03 07:42:00,60.0,59.0,29.95,SSE,167,0.0,6.0,97,0.02,,,1.72,,2013-06-03 11:42:00,
2013-06-03 07:52:00,60.0,59.0,29.95,South,169,1.0,4.0,97,0.00,,,1.72,,2013-06-03 11:52:00,
2013-06-03 08:02:00,60.0,59.0,29.96,SSE,166,2.0,8.0,97,0.00,,,1.72,,2013-06-03 12:02:00,
2013-06-03 08:12:00,60.0,59.0,29.96,SSE,166,2.0,8.0,97,0.00,,,1.72,,2013-06-03 12:12:00,
2013-06-03 08:22:00,61.0,60.0,29.96,SSE,167,0.0,5.0,96,0.00,,,1.72,,2013-06-03 12:22:00,
2013-06-03 08:32:00,62.0,61.0,29.96,SSE,166,1.0,5.0,95,0.00,,,1.72,,2013-06-03 12:32:00,
2013-06-03 08:42:00,62.0,61.0,29.96,SSE,166,1.0,5.0,95,0.00,,,1.72,,2013-06-03 12:42:00,
2013-06-03 08:52:00,62.0,60.0,29.96,SSE,167,1.0,7.0,93,0.00,,,1.72,,2013-06-03 12:52:00,
2013-06-03 09:02:00,62.0,60.0,29.96,SSE,167,1.0,7.0,93,0.00,,,1.72,,2013-06-03 13:02:00,
2013-06-03 09:12:00,62.0,60.0,29.96,SSE,167,1.0,7.0,93,0.00,,,1.72,,2013-06-03 13:12:00,
2013-06-03 09:22:00,63.0,61.0,29.97,South,169,2.0,7.0,92,0.00,,,1.64,,2013-06-03 13:22:00,
2013-06-03 09:32:00,64.0,61.0,29.97,South,169,1.0,5.0,91,0.00,,,1.64,,2013-06-03 13:32:00,
2013-06-03 09:43:00,64.0,61.0,29.97,South,169,1.0,5.0,91,0.00,,,1.64,,2013-06-03 13:43:00,
2013-06-03 09:53:00,65.0,61.0,29.97,SSE,167,1.0,6.0,87,0.00,,,1.64,,2013-06-03 13:53:00,
2013-06-03 10:02:00,66.0,62.0,29.97,South,169,0.0,5.0,87,0.00,,,1.64,,2013-06-03 14:02:00,
2013-06-03 10:13:00,66.0,62.0,29.97,South,169,0.0,5.0,87,0.00,,,1.64,,2013-06-03 14:13:00,
2013-06-03 10:22:00,68.0,65.0,29.97,South,169,0.0,4.0,89,0.00,,,1.64,,2013-06-03 14:22:00,
2013-06-03 10:32:00,69.0,64.0,29.97,South,169,1.0,6.0,83,0.00,,,1.64,,2013-06-03 14:32:00,
2013-06-03 10:42:00,69.0,64.0,29.97,South,169,1.0,6.0,83,0.00,,,1.64,,2013-06-03 14:42:00,
2013-06-03 10:52:00,70.0,63.0,29.98,South,170,0.0,7.0,78,0.00,,,1.64,,2013-06-03 14:52:00,
2013-06-03 11:02:00,70.0,62.0,29.98,SSE,167,0.0,4.0,76,0.00,,,1.64,,2013-06-03 15:02:00,
2013-06-03 11:12:00,70.0,62.0,29.98,SSE,167,0.0,4.0,76,0.00,,,1.64,,2013-06-03 15:12:00,
2013-06-03 11:22:00,71.0,63.0,29.98,South,169,0.0,6.0,77,0.00,,,1.64,,2013-06-03 15:22:00,
2013-06-03 11:33:00,71.0,61.0,29.99,SSE,167,2.0,7.0,71,0.00,,,1.64,,2013-06-03 15:33:00,
2013-06-03 11:43:00,71.0,61.0,29.99,SSE,167,2.0,7.0,71,0.00,,,1.64,,2013-06-03 15:43:00,
2013-06-03 11:53:00,72.0,64.0,29.98,SSE,167,0.0,4.0,75,0.00,,,1.64,,2013-06-03 15:53:00,
2013-06-03 12:03:00,73.0,64.0,29.98,South,169,1.0,5.0,73,0.00,,,1.64,,2013-06-03 16:03:00,
2013-06-03 12:13:00,73.0,64.0,29.98,South,169,1.0,5.0,73,0.00,,,1.64,,2013-06-03 16:13:00,
2013-06-03 12:23:00,73.0,61.0,29.98,South,169,2.0,8.0,66,0.00,,,1.64,,2013-06-03 16:23:00,
2013-06-03 12:33:00,74.0,63.0,29.98,SSE,166,0.0,7.0,68,0.00,,,1.64,,2013-06-03 16:33:00,
2013-06-03 12:42:00,75.0,62.0,29.98,South,170,1.0,7.0,63,0.00,,,1.64,,2013-06-03 16:42:00,
2013-06-03 12:53:00,75.0,62.0,29.98,South,170,1.0,7.0,63,0.00,,,1.64,,2013-06-03 16:53:00,
2013-06-03 13:02:00,75.0,60.0,29.98,South,170,0.0,3.0,60,0.00,,,1.64,,2013-06-03 17:02:00,
2013-06-03 13:12:00,75.0,60.0,29.98,South,170,0.0,3.0,60,0.00,,,1.64,,2013-06-03 17:12:00,
2013-06-03 13:22:00,75.0,59.0,29.98,SSE,166,1.0,9.0,57,0.00,,,1.63,,2013-06-03 17:22:00,
2013-06-03 13:33:00,72.0,57.0,29.98,South,169,1.0,11.0,60,0.00,,,1.63,,2013-06-03 17:33:00,
2013-06-03 13:42:00,72.0,57.0,29.98,South,169,1.0,11.0,60,0.00,,,1.63,,2013-06-03 17:42:00,
2013-06-03 13:52:00,73.0,58.0,29.97,South,170,1.0,4.0,59,0.00,,,1.63,,2013-06-03 17:52:00,
2013-06-03 14:02:00,73.0,59.0,29.97,SSE,167,0.0,7.0,62,0.00,,,1.63,,2013-06-03 18:02:00,
2013-06-03 14:12:00,73.0,59.0,29.97,SSE,167,0.0,7.0,62,0.00,,,1.63,,2013-06-03 18:12:00,
2013-06-03 14:22:00,75.0,60.0,29.97,South,169,2.0,8.0,59,0.00,,,1.63,,2013-06-03 18:22:00,
2013-06-03 14:32:00,74.0,60.0,29.97,South,169,0.0,5.0,61,0.00,,,1.63,,2013-06-03 18:32:00,
2013-06-03 14:43:00,74.0,60.0,29.97,South,169,0.0,5.0,61,0.00,,,1.63,,2013-06-03 18:43:00,
2013-06-03 14:53:00,74.0,58.0,29.96,South,169,1.0,4.0,58,0.00,,,1.63,,2013-06-03 18:53:00,
2013-06-03 15:03:00,74.0,58.0,29.96,South,169,2.0,6.0,58,0.00,,,1.63,,2013-06-03 19:03:00,
2013-06-03 15:12:00,74.0,58.0,29.96,South,169,2.0,6.0,58,0.00,,,1.63,,2013-06-03 19:12:00,
2013-06-03 15:23:00,72.0,58.0,29.96,South,169,0.0,8.0,62,0.00,,,1.63,,2013-06-03 19:23:00,
2013-06-03 15:32:00,74.0,60.0,29.95,South,170,0.0,5.0,62,0.00,,,1.63,,2013-06-03 19:32:00,
2013-06-03 15:42:00,74.0,60.0,29.95,South,170,0.0,5.0,62,0.00,,,1.63,,2013-06-03 19:42:00,
2013-06-03 15:53:00,74.0,59.0,29.95,South,173,1.0,7.0,59,0.00,,,1.63,,2013-06-03 19:53:00,
2013-06-03 16:02:00,75.0,60.0,29.94,South,170,0.0,9.0,60,0.00,,,1.63,,2013-06-03 20:02:00,
2013-06-03 16:12:00,75.0,60.0,29.94,South,170,0.0,9.0,60,0.00,,,1.63,,2013-06-03 20:12:00,
2013-06-03 16:22:00,75.0,60.0,29.94,South,170,0.0,4.0,59,0.00,,,0.22,,2013-06-03 20:22:00,
2013-06-03 16:33:00,74.0,59.0,29.94,South,170,0.0,6.0,59,0.00,,,0.22,,2013-06-03 20:33:00,
2013-06-03 16:43:00,74.0,59.0,29.94,South,170,0.0,6.0,59,0.00,,,0.22,,2013-06-03 20:43:00,
2013-06-03 16:52:00,76.0,59.0,29.93,South,169,0.0,5.0,56,0.00,,,0.22,,2013-06-03 20:52:00,
2013-06-03 17:02:00,76.0,59.0,29.93,South,169,1.0,4.0,55,0.00,,,0.22,,2013-06-03 21:02:00,
2013-06-03 17:12:00,76.0,59.0,29.93,South,169,1.0,4.0,55,0.00,,,0.22,,2013-06-03 21:12:00,
2013-06-03 17:22:00,76.0,58.0,29.94,South,169,0.0,2.0,54,0.00,,,0.11,,2013-06-03 21:22:00,
2013-06-03 17:33:00,77.0,60.0,29.94,South,170,0.0,4.0,55,0.00,,,0.11,,2013-06-03 21:33:00,
2013-06-03 17:43:00,77.0,60.0,29.94,South,170,0.0,4.0,55,0.00,,,0.11,,2013-06-03 21:43:00,
2013-06-03 17:53:00,76.0,60.0,29.93,South,170,0.0,4.0,57,0.00,,,0.11,,2013-06-03 21:53:00,
2013-06-03 18:03:00,75.0,59.0,29.93,South,170,0.0,5.0,57,0.00,,,0.11,,2013-06-03 22:03:00,
2013-06-03 18:12:00,75.0,59.0,29.93,South,170,0.0,5.0,57,0.00,,,0.11,,2013-06-03 22:12:00,
2013-06-03 18:22:00,74.0,58.0,29.93,South,170,0.0,7.0,57,0.00,,,0.10,,2013-06-03 22:22:00,
2013-06-03 18:33:00,74.0,58.0,29.93,South,170,0.0,3.0,57,0.00,,,0.10,,2013-06-03 22:33:00,
2013-06-03 18:42:00,74.0,58.0,29.93,South,170,0.0,3.0,57,0.00,,,0.10,,2013-06-03 22:42:00,
2013-06-03 18:53:00,72.0,57.0,29.94,South,170,0.0,4.0,59,0.00,,,0.10,,2013-06-03 22:53:00,
2013-06-03 19:02:00,71.0,56.0,29.94,South,170,0.0,1.0,60,0.00,,,0.10,,2013-06-03 23:02:00,
2013-06-03 19:12:00,71.0,56.0,29.94,South,170,0.0,1.0,60,0.00,,,0.10,,2013-06-03 23:12:00,
2013-06-03 19:23:00,70.0,56.0,29.95,South,171,0.0,3.0,61,0.00,,,0.07,,2013-06-03 23:23:00,
2013-06-03 19:32:00,69.0,55.0,29.95,South,170,0.0,0.0,61,0.00,,,0.07,,2013-06-03 23:32:00,
2013-06-03 19:42:00,69.0,55.0,29.95,South,170,0.0,0.0,61,0.00,,,0.07,,2013-06-03 23:42:00,
2013-06-03 19:52:00,69.0,55.0,29.96,South,170,0.0,0.0,62,0.00,,,0.07,,2013-06-03 23:52:00,
2013-06-03 20:02:00,68.0,54.0,29.96,South,170,0.0,0.0,62,0.00,,,0.07,,2013-06-04 00:02:00,
2013-06-03 20:12:00,68.0,54.0,29.96,South,170,0.0,0.0,62,0.00,,,0.07,,2013-06-04 00:12:00,
2013-06-03 20:22:00,67.0,54.0,29.96,South,170,0.0,0.0,64,0.00,,,0.06,,2013-06-04 00:22:00,
2013-06-03 20:32:00,67.0,54.0,29.97,South,170,0.0,0.0,64,0.00,,,0.06,,2013-06-04 00:32:00,
2013-06-03 20:42:00,67.0,54.0,29.97,South,170,0.0,0.0,64,0.00,,,0.06,,2013-06-04 00:42:00,
2013-06-03 20:52:00,66.0,54.0,29.97,South,170,0.0,0.0,65,0.00,,,0.06,,2013-06-04 00:52:00,
2013-06-03 21:02:00,66.0,54.0,29.97,South,170,0.0,1.0,66,0.00,,,0.06,,2013-06-04 01:02:00,
2013-06-03 21:12:00,66.0,54.0,29.97,South,170,0.0,1.0,66,0.00,,,0.06,,2013-06-04 01:12:00,
2013-06-03 21:22:00,65.0,54.0,29.98,South,170,0.0,0.0,68,0.00,,,0.03,,2013-06-04 01:22:00,
2013-06-03 21:32:00,65.0,55.0,29.98,South,170,0.0,0.0,70,0.00,,,0.03,,2013-06-04 01:32:00,
2013-06-03 21:42:00,65.0,55.0,29.98,South,170,0.0,0.0,70,0.00,,,0.03,,2013-06-04 01:42:00,
2013-06-03 21:53:00,65.0,56.0,29.99,South,170,0.0,1.0,73,0.00,,,0.03,,2013-06-04 01:53:00,
2013-06-03 22:02:00,64.0,55.0,29.99,South,171,0.0,0.0,73,0.00,,,0.03,,2013-06-04 02:02:00,
2013-06-03 22:12:00,64.0,55.0,29.99,South,171,0.0,0.0,73,0.00,,,0.03,,2013-06-04 02:12:00,
2013-06-03 22:22:00,65.0,56.0,30.00,South,170,0.0,0.0,73,0.00,,,0.02,,2013-06-04 02:22:00,
2013-06-03 22:32:00,65.0,56.0,30.01,South,170,0.0,0.0,72,0.00,,,0.02,,2013-06-04 02:32:00,
2013-06-03 22:42:00,65.0,56.0,30.01,South,170,0.0,0.0,72,0.00,,,0.02,,2013-06-04 02:42:00,
2013-06-03 22:52:00,65.0,56.0,30.01,South,170,0.0,0.0,72,0.00,,,0.02,,2013-06-04 02:52:00,
2013-06-03 23:02:00,65.0,56.0,30.02,South,170,0.0,0.0,73,0.00,,,0.02,,2013-06-04 03:02:00,
2013-06-03 23:12:00,65.0,56.0,30.02,South,170,0.0,0.0,73,0.00,,,0.02,,2013-06-04 03:12:00,
2013-06-03 23:22:00,65.0,56.0,30.02,South,170,0.0,0.0,73,0.00,,,0.02,,2013-06-04 03:22:00,
2013-06-03 23:32:00,64.0,56.0,30.02,South,170,0.0,0.0,76,0.00,,,0.02,,2013-06-04 03:32:00,
2013-06-03 23:43:00,64.0,56.0,30.02,South,170,0.0,0.0,76,0.00,,,0.02,,2013-06-04 03:43:00,
2013-06-03 23:54:00,64.0,56.0,30.02,South,170,0.0,1.0,75,0.00,,,0.02,,2013-06-04 03:54:00,